Time;durP1;ratioP1;P1;durP2;ratioP2;P2;SDS_P1;SDS_P2;PMS_P1;PMS_P2;Temp;Humidity;BMP_temperature;BMP_pressure;BME280_temperature;BME280_humidity;BME280_pressure;Samples;Min_cycle;Max_cycle;Signal;HPM_P1;HPM_P2
2023/04/21 00:02:14;;;;;;;14.65;4.20;;;;;;;8.32;78.35;99856.09;1773712;79;21393;-61
2023/04/21 00:05:20;;;;;;;13.75;4.17;;;;;;;8.29;78.26;99857.81;1774056;79;21193;-59
2023/04/21 00:08:26;;;;;;;17.50;4.28;;;;;;;8.29;78.38;99861.36;1774119;79;21220;-63
2023/04/21 00:11:32;;;;;;;14.70;4.42;;;;;;;8.31;78.36;99855.77;1772792;79;21236;-59
2023/04/21 00:14:38;;;;;;;20.23;4.70;;;;;;;8.27;78.33;99854.40;1768590;80;21192;-59
2023/04/21 00:17:45;;;;;;;15.85;5.08;;;;;;;8.24;78.30;99840.61;1768917;81;21359;-60
2023/04/21 00:20:54;;;;;;;16.50;4.90;;;;;;;8.22;78.34;99848.58;1770222;80;21351;-60
2023/04/21 00:24:00;;;;;;;18.62;5.10;;;;;;;8.24;78.43;99847.93;1768931;81;21300;-59
2023/04/21 00:27:06;;;;;;;16.25;5.03;;;;;;;8.26;78.47;99845.89;1768202;81;21225;-61
2023/04/21 00:30:13;;;;;;;18.27;4.62;;;;;;;8.23;78.43;99840.25;1768437;81;21338;-61
2023/04/21 00:33:18;;;;;;;18.87;5.70;;;;;;;8.19;78.40;99838.88;1779566;79;21694;-60
2023/04/21 00:36:27;;;;;;;15.00;4.33;;;;;;;8.19;78.47;99835.30;1769587;80;21323;-59
2023/04/21 00:39:32;;;;;;;17.37;4.85;;;;;;;8.19;78.56;99833.43;1769451;80;21205;-59
2023/04/21 00:42:37;;;;;;;19.55;5.00;;;;;;;8.20;78.61;99835.63;1769479;80;21205;-59
2023/04/21 00:45:45;;;;;;;21.93;4.85;;;;;;;8.20;78.58;99828.80;1768662;81;21189;-60
2023/04/21 00:48:52;;;;;;;16.15;4.33;;;;;;;8.18;78.59;99830.88;1769170;81;21165;-60
2023/04/21 00:51:57;;;;;;;16.60;4.85;;;;;;;8.18;78.60;99829.52;1779031;80;21335;-60
2023/04/21 00:55:03;;;;;;;13.38;4.28;;;;;;;8.20;78.63;99832.90;1769521;80;21174;-60
2023/04/21 00:58:11;;;;;;;16.10;3.62;;;;;;;8.19;78.65;99828.48;1769003;81;21387;-60
2023/04/21 01:01:19;;;;;;;15.83;4.10;;;;;;;8.19;78.73;99828.48;1769735;80;21228;-60
2023/04/21 01:04:27;;;;;;;14.93;4.33;;;;;;;8.21;78.80;99830.53;1779027;80;21205;-60
2023/04/21 01:07:33;;;;;;;18.55;4.83;;;;;;;8.23;78.79;99827.98;1768833;81;21209;-61
2023/04/21 01:10:39;;;;;;;25.08;4.67;;;;;;;8.26;78.84;99827.63;1768740;80;21235;-59
2023/04/21 01:13:46;;;;;;;16.15;4.25;;;;;;;8.29;78.83;99829.18;1767194;79;21197;-59
2023/04/21 01:16:54;;;;;;;11.88;4.08;;;;;;;8.30;78.84;99821.33;1768946;81;21185;-60
2023/04/21 01:19:59;;;;;;;14.10;4.20;;;;;;;8.30;78.82;99822.69;1769214;80;21209;-61
2023/04/21 01:23:07;;;;;;;14.85;4.22;;;;;;;8.30;78.78;99815.88;1771339;79;21221;-59
2023/04/21 01:26:14;;;;;;;16.25;4.00;;;;;;;8.27;78.76;99808.91;1769026;80;21796;-61
2023/04/21 01:29:20;;;;;;;23.42;4.67;;;;;;;8.28;78.79;99814.69;1768910;81;21326;-61
2023/04/21 01:32:33;;;;;;;19.42;3.95;;;;;;;8.30;78.87;99806.33;1768737;81;21200;-62
2023/04/21 01:35:39;;;;;;;20.08;4.70;;;;;;;8.32;78.92;99800.20;1769442;80;21161;-60
2023/04/21 01:38:48;;;;;;;18.37;4.22;;;;;;;8.34;78.92;99801.70;1769500;80;21177;-60
2023/04/21 01:41:56;;;;;;;22.58;4.37;;;;;;;8.36;78.90;99805.63;1768589;81;21320;-60
2023/04/21 01:45:04;;;;;;;16.07;3.95;;;;;;;8.36;78.87;99802.39;1769276;79;21323;-59
2023/04/21 01:48:10;;;;;;;18.00;4.20;;;;;;;8.36;78.85;99809.20;1769070;81;21205;-60
2023/04/21 01:51:16;;;;;;;14.18;4.20;;;;;;;8.40;78.91;99810.58;1768337;80;21628;-59
2023/04/21 01:54:21;;;;;;;16.10;4.37;;;;;;;8.39;78.85;99807.99;1768486;81;21248;-60
2023/04/21 01:57:27;;;;;;;15.20;4.17;;;;;;;8.37;78.83;99803.25;1768676;81;21252;-59
2023/04/21 02:00:34;;;;;;;17.55;4.62;;;;;;;8.35;78.83;99802.56;1769582;80;21232;-60
2023/04/21 02:03:40;;;;;;;13.53;4.08;;;;;;;8.34;78.81;99803.61;1768765;81;21435;-60
2023/04/21 02:06:46;;;;;;;17.05;4.25;;;;;;;8.34;78.91;99810.42;1779198;80;21333;-61
2023/04/21 02:09:51;;;;;;;19.57;4.95;;;;;;;8.37;78.98;99808.17;1768839;80;21189;-60
2023/04/21 02:12:59;;;;;;;14.85;4.22;;;;;;;8.39;78.95;99806.62;1771228;79;21197;-61
2023/04/21 02:16:07;;;;;;;15.18;4.37;;;;;;;8.38;78.96;99809.03;1768613;80;21413;-60
2023/04/21 02:19:12;;;;;;;14.07;4.55;;;;;;;8.40;78.99;99809.71;1769386;80;21212;-61
2023/04/21 02:22:21;;;;;;;13.05;4.30;;;;;;;8.40;78.92;99808.35;1769346;80;21217;-61
2023/04/21 02:25:28;;;;;;;18.12;5.20;;;;;;;8.39;78.91;99803.90;1768452;80;21196;-61
2023/04/21 02:28:36;;;;;;;15.13;4.62;;;;;;;8.38;78.95;99805.80;1768587;80;21283;-61
2023/04/21 02:31:42;;;;;;;15.28;4.30;;;;;;;8.36;78.88;99799.66;1768789;80;21240;-61
2023/04/21 02:34:49;;;;;;;15.60;5.03;;;;;;;8.35;78.91;99798.48;1769727;80;21248;-61
2023/04/21 02:37:56;;;;;;;18.32;4.85;;;;;;;8.33;78.83;99799.16;1769369;80;21603;-62
2023/04/21 02:41:02;;;;;;;19.40;4.87;;;;;;;8.25;78.77;99795.95;1767704;80;21168;-63
2023/04/21 02:44:09;;;;;;;18.35;4.97;;;;;;;8.22;78.81;99794.05;1769349;80;21260;-63
2023/04/21 02:47:16;;;;;;;15.75;5.50;;;;;;;8.19;78.84;99786.23;1769143;79;21366;-61
2023/04/21 02:50:21;;;;;;;16.52;5.75;;;;;;;8.15;78.88;99797.16;1769230;80;21201;-63
2023/04/21 02:53:29;;;;;;;17.52;5.00;;;;;;;8.19;79.03;99799.86;1769179;80;21224;-62
2023/04/21 02:56:34;;;;;;;15.18;4.78;;;;;;;8.22;79.14;99790.82;1769537;80;21267;-62
2023/04/21 02:59:39;;;;;;;17.62;5.15;;;;;;;8.22;79.12;99792.19;1769281;81;21334;-63
2023/04/21 03:02:45;;;;;;;16.23;4.72;;;;;;;8.26;79.19;99792.72;1769081;80;21363;-63
2023/04/21 03:05:53;;;;;;;21.52;4.97;;;;;;;8.27;79.16;99793.05;1769158;80;21180;-60
2023/04/21 03:08:59;;;;;;;16.37;5.67;;;;;;;8.29;79.21;99796.46;1769576;80;21284;-60
2023/04/21 03:12:06;;;;;;;22.87;5.37;;;;;;;8.29;79.18;99787.75;1768991;80;21385;-62
2023/04/21 03:15:13;;;;;;;14.60;4.90;;;;;;;8.29;79.18;99793.73;1766699;79;21212;-62
2023/04/21 03:18:19;;;;;;;17.00;5.67;;;;;;;8.31;79.20;99798.50;1778403;79;21275;-62
2023/04/21 03:21:26;;;;;;;13.95;5.08;;;;;;;8.32;79.21;99798.33;1776236;79;21228;-61
2023/04/21 03:24:33;;;;;;;15.20;5.33;;;;;;;8.34;79.23;99794.06;1776546;79;21236;-61
2023/04/21 03:27:40;;;;;;;21.97;5.70;;;;;;;8.38;79.25;99794.03;1776276;81;21334;-60
2023/04/21 03:30:47;;;;;;;18.17;5.53;;;;;;;8.38;79.28;99798.13;1776354;79;21350;-60
2023/04/21 03:33:46;;;;;;;16.67;5.35;;;;;;;8.40;79.33;99794.71;1776298;81;21196;-61
2023/04/21 03:36:41;;;;;;;23.73;6.20;;;;;;;8.47;79.35;99806.60;1776304;81;21733;-60
2023/04/21 03:39:46;;;;;;;15.70;5.12;;;;;;;8.48;79.32;99802.87;1776397;81;21180;-61
2023/04/21 03:42:52;;;;;;;20.37;6.08;;;;;;;8.51;79.33;99802.00;1776289;79;21200;-60
2023/04/21 03:45:59;;;;;;;21.07;6.05;;;;;;;8.46;79.17;99798.09;1776428;79;21350;-63
2023/04/21 03:49:06;;;;;;;21.17;5.55;;;;;;;8.45;79.22;99802.69;1776314;81;21196;-59
2023/04/21 03:52:11;;;;;;;17.70;5.83;;;;;;;8.46;79.24;99796.22;1776283;79;21263;-60
2023/04/21 03:55:17;;;;;;;17.23;5.45;;;;;;;8.43;79.17;99798.45;1776440;79;21216;-60
2023/04/21 03:58:25;;;;;;;20.20;5.72;;;;;;;8.41;79.17;99797.77;1776314;79;21339;-59
2023/04/21 04:01:31;;;;;;;15.48;6.20;;;;;;;8.41;79.28;99799.98;1776382;79;21267;-62
2023/04/21 04:04:36;;;;;;;27.42;6.53;;;;;;;8.43;79.32;99802.54;1776633;81;21239;-60
2023/04/21 04:07:43;;;;;;;16.77;5.50;;;;;;;8.46;79.40;99802.19;1776723;81;21200;-60
2023/04/21 04:10:52;;;;;;;16.30;5.78;;;;;;;8.48;79.46;99797.41;1776680;81;21231;-59
2023/04/21 04:13:58;;;;;;;14.63;5.92;;;;;;;8.55;79.53;99797.02;1776810;79;21243;-60
2023/04/21 04:17:06;;;;;;;13.90;5.35;;;;;;;8.54;79.38;99798.06;1776628;79;21188;-61
2023/04/21 04:20:14;;;;;;;14.50;6.10;;;;;;;8.57;79.53;99794.97;1776724;81;21180;-60
2023/04/21 04:23:21;;;;;;;15.63;5.70;;;;;;;8.60;79.57;99800.94;1776907;79;21220;-60
2023/04/21 04:26:27;;;;;;;19.12;6.10;;;;;;;8.64;79.59;99799.53;1776697;81;21280;-59
2023/04/21 04:29:33;;;;;;;18.00;5.55;;;;;;;8.65;79.51;99801.76;1776751;81;21169;-60
2023/04/21 04:32:40;;;;;;;24.12;6.47;;;;;;;8.58;79.34;99794.80;1777943;80;21729;-60
2023/04/21 04:35:47;;;;;;;16.37;6.03;;;;;;;8.59;79.43;99797.84;1776553;81;21236;-59
2023/04/21 04:38:53;;;;;;;15.23;5.90;;;;;;;8.63;79.54;99799.21;1776808;81;21236;-60
2023/04/21 04:42:00;;;;;;;20.35;6.05;;;;;;;8.67;79.51;99796.98;1776766;81;21390;-60
2023/04/21 04:45:07;;;;;;;27.50;6.33;;;;;;;8.70;79.57;99796.63;1776603;81;21311;-60
2023/04/21 04:48:15;;;;;;;14.13;5.87;;;;;;;8.72;79.57;99797.30;1776662;81;21212;-60
2023/04/21 04:51:19;;;;;;;17.57;6.53;;;;;;;8.71;79.51;99794.22;1743269;81;21275;-60
2023/04/21 04:54:27;;;;;;;18.40;6.85;;;;;;;8.71;79.52;99798.31;1750490;82;21370;-61
2023/04/21 04:57:34;;;;;;;22.05;6.83;;;;;;;8.74;79.60;99795.22;1750605;80;21224;-60
2023/04/21 05:00:40;;;;;;;20.37;6.12;;;;;;;8.76;79.57;99795.91;1750312;82;21216;-60
2023/04/21 05:03:47;;;;;;;17.65;5.80;;;;;;;8.77;79.57;99793.50;1749941;80;21219;-60
2023/04/21 05:06:56;;;;;;;14.47;5.42;;;;;;;8.75;79.54;99787.39;1718840;83;21404;-62
2023/04/21 05:10:04;;;;;;;11.12;5.15;;;;;;;8.80;79.69;99793.17;1750286;81;21186;-61
2023/04/21 05:13:10;;;;;;;15.72;5.55;;;;;;;8.82;79.71;99786.49;1750329;81;21222;-59
2023/04/21 05:16:16;;;;;;;21.30;6.62;;;;;;;8.86;79.73;99785.63;1750307;81;21720;-61
2023/04/21 05:19:24;;;;;;;13.85;5.47;;;;;;;8.85;79.68;99781.17;1759453;79;21228;-61
2023/04/21 05:22:31;;;;;;;12.93;5.17;;;;;;;8.84;79.61;99775.39;1734384;81;21356;-61
2023/04/21 05:25:39;;;;;;;15.05;4.87;;;;;;;8.75;79.48;99790.13;1732858;81;21261;-61
2023/04/21 05:28:45;;;;;;;12.55;4.72;;;;;;;8.70;79.54;99790.66;1759014;80;21250;-62
2023/04/21 05:31:53;;;;;;;17.20;5.42;;;;;;;8.73;79.70;99789.44;1758824;80;21241;-60
2023/04/21 05:35:03;;;;;;;12.00;5.72;;;;;;;8.74;79.71;99787.90;1756429;81;21423;-62
2023/04/21 05:38:09;;;;;;;23.10;5.60;;;;;;;8.72;79.71;99784.48;1756650;81;21235;-63
2023/04/21 05:41:16;;;;;;;11.50;5.37;;;;;;;8.74;79.75;99780.22;1757907;81;21253;-65
2023/04/21 05:44:24;;;;;;;11.75;4.87;;;;;;;8.77;79.89;99777.12;1757501;81;21198;-67
2023/04/21 05:47:30;;;;;;;14.78;4.60;;;;;;;8.78;79.87;99782.94;1757618;81;21217;-66
2023/04/21 05:50:36;;;;;;;12.05;5.17;;;;;;;8.79;79.80;99781.39;1757634;81;21194;-66
2023/04/21 05:53:42;;;;;;;11.33;5.03;;;;;;;8.77;79.78;99782.59;1757753;80;21306;-66
2023/04/21 05:56:49;;;;;;;11.93;4.37;;;;;;;8.73;79.76;99784.84;1734669;81;21224;-66
2023/04/21 05:59:55;;;;;;;10.85;4.40;;;;;;;8.75;79.85;99781.94;1757458;80;21389;-69
2023/04/21 06:03:02;;;;;;;7.45;4.35;;;;;;;8.80;79.96;99778.16;1750316;82;21270;-67
2023/04/21 06:06:10;;;;;;;10.08;4.12;;;;;;;8.86;80.07;99778.80;1750095;82;21255;-65
2023/04/21 06:09:16;;;;;;;9.23;4.80;;;;;;;8.92;80.08;99780.30;1750806;82;21665;-67
2023/04/21 06:12:23;;;;;;;8.98;3.87;;;;;;;8.94;80.02;99780.13;1754550;80;21206;-65
2023/04/21 06:15:29;;;;;;;10.05;3.55;;;;;;;9.00;80.11;99778.03;1751596;80;21202;-66
2023/04/21 06:18:35;;;;;;;7.87;3.67;;;;;;;9.00;79.98;99773.43;1748766;79;21304;-67
2023/04/21 06:21:41;;;;;;;6.50;2.90;;;;;;;9.00;79.96;99778.03;1745397;80;21760;-68
2023/04/21 06:24:47;;;;;;;7.65;3.60;;;;;;;9.04;80.02;99772.02;1725450;79;21196;-67
2023/04/21 06:27:53;;;;;;;9.05;5.12;;;;;;;9.06;80.02;99782.76;1739406;81;21334;-64
2023/04/21 06:31:00;;;;;;;8.18;3.60;;;;;;;9.09;80.07;99775.56;1714805;81;21288;-63
2023/04/21 06:34:06;;;;;;;22.93;10.40;;;;;;;9.14;80.09;99782.70;1740428;81;21190;-65
2023/04/21 06:37:12;;;;;;;6.33;2.80;;;;;;;9.19;80.13;99781.65;1699927;82;21503;-64
2023/04/21 06:40:18;;;;;;;7.15;2.92;;;;;;;9.23;80.13;99785.70;1742463;82;21568;-66
2023/04/21 06:43:24;;;;;;;6.78;2.60;;;;;;;9.23;80.02;99781.61;1719341;81;21217;-67
2023/04/21 06:46:30;;;;;;;7.72;2.70;;;;;;;9.24;80.07;99783.83;1710214;82;21208;-67
2023/04/21 06:49:41;;;;;;;4.55;2.40;;;;;;;9.28;80.13;99779.19;1761316;80;21194;-67
2023/04/21 06:52:48;;;;;;;6.80;2.77;;;;;;;9.36;80.21;99771.44;1767729;80;21249;-67
2023/04/21 06:55:55;;;;;;;6.47;2.85;;;;;;;9.33;80.03;99782.22;1767215;80;21205;-67
2023/04/21 06:59:01;;;;;;;4.45;2.30;;;;;;;9.32;80.06;99781.04;1743676;80;21209;-68
2023/04/21 07:02:07;;;;;;;7.10;3.40;;;;;;;9.37;80.20;99781.34;1767320;80;21531;-63
2023/04/21 07:05:13;;;;;;;14.75;4.22;;;;;;;9.39;80.12;99778.75;1769369;79;21304;-69
2023/04/21 07:08:18;;;;;;;7.33;2.77;;;;;;;9.47;80.25;99788.76;1757748;79;21249;-66
2023/04/21 07:11:27;;;;;;;7.33;3.15;;;;;;;9.54;80.24;99787.00;1767532;80;21221;-66
2023/04/21 07:14:33;;;;;;;4.33;3.00;;;;;;;9.57;80.19;99788.00;1719037;82;21214;-61
2023/04/21 07:17:39;;;;;;;5.60;2.60;;;;;;;9.61;80.25;99783.34;1727182;81;21227;-62
2023/04/21 07:20:48;;;;;;;7.40;2.40;;;;;;;9.69;80.30;99781.91;1724929;81;21395;-64
2023/04/21 07:23:53;;;;;;;7.35;3.33;;;;;;;9.79;80.35;99781.14;1729231;82;21198;-61
2023/04/21 07:26:59;;;;;;;8.48;3.40;;;;;;;9.88;80.42;99780.02;1728256;83;21250;-63
2023/04/21 07:30:05;;;;;;;6.78;4.17;;;;;;;9.92;80.29;99781.86;1714671;82;21228;-63
2023/04/21 07:33:11;;;;;;;6.35;3.35;;;;;;;9.90;80.18;99780.69;1713247;82;21239;-65
2023/04/21 07:36:19;;;;;;;4.85;2.40;;;;;;;9.90;80.20;99782.05;1673454;82;21253;-64
2023/04/21 07:39:25;;;;;;;5.60;2.30;;;;;;;9.94;80.25;99784.73;1706942;83;21224;-63
2023/04/21 07:42:33;;;;;;;3.98;2.42;;;;;;;10.01;80.38;99784.33;1710390;82;21206;-65
2023/04/21 07:45:38;;;;;;;5.12;1.98;;;;;;;10.04;80.32;99793.52;1715800;83;21775;-66
2023/04/21 07:48:46;;;;;;;3.92;2.20;;;;;;;10.01;80.08;99789.80;1689515;83;21224;-67
2023/04/21 07:51:58;;;;;;;3.90;2.00;;;;;;;9.99;80.11;99800.60;1736112;81;21202;-63
2023/04/21 07:55:05;;;;;;;21.37;16.32;;;;;;;9.98;80.21;99795.64;1733152;81;21257;-66
2023/04/21 07:58:12;;;;;;;7.65;4.28;;;;;;;10.03;80.27;99805.51;1678028;83;21805;-64
2023/04/21 08:01:19;;;;;;;4.28;2.37;;;;;;;10.08;80.32;99807.20;1702214;83;21217;-65
2023/04/21 08:04:25;;;;;;;5.17;2.50;;;;;;;10.06;80.18;99802.39;1701416;83;21224;-61
2023/04/21 08:07:33;;;;;;;5.33;2.20;;;;;;;10.09;80.26;99804.78;1701575;84;21808;-63
2023/04/21 08:10:39;;;;;;;4.30;2.22;;;;;;;10.14;80.35;99805.59;1702070;84;21559;-66
2023/04/21 08:13:45;;;;;;;5.72;2.15;;;;;;;10.20;80.42;99805.69;1709730;84;21626;-66
2023/04/21 08:16:51;;;;;;;6.28;2.47;;;;;;;10.24;80.36;99804.27;1710942;83;21232;-64
2023/04/21 08:19:51;;;;;;;6.05;2.05;;;;;;;10.21;80.24;99808.75;1705691;84;21432;-66
2023/04/21 08:22:52;;;;;;;8.03;3.35;;;;;;;10.22;80.32;99809.61;1726050;82;21218;-68
2023/04/21 08:25:59;;;;;;;4.65;2.05;;;;;;;10.24;80.35;99815.20;1727423;82;21234;-66
2023/04/21 08:29:06;;;;;;;4.30;2.00;;;;;;;10.27;80.39;99814.00;1727431;83;21752;-66
2023/04/21 08:32:13;;;;;;;4.58;2.05;;;;;;;10.33;80.47;99814.10;1727975;82;21305;-61
2023/04/21 08:35:19;;;;;;;8.25;2.65;;;;;;;10.38;80.46;99803.95;1730994;81;21213;-65
2023/04/21 08:38:26;;;;;;;9.15;3.10;;;;;;;10.36;80.24;99815.09;1731236;81;21339;-65
2023/04/21 08:41:32;;;;;;;5.45;2.80;;;;;;;10.30;80.15;99819.95;1749537;81;21226;-66
2023/04/21 08:44:40;;;;;;;6.70;2.47;;;;;;;10.30;80.22;99813.11;1757477;80;21266;-66
2023/04/21 08:47:47;;;;;;;5.30;2.45;;;;;;;10.33;80.22;99811.37;1727778;83;21277;-67
2023/04/21 08:50:55;;;;;;;8.03;2.33;;;;;;;10.35;80.27;99807.90;1680619;83;21273;-64
2023/04/21 08:54:01;;;;;;;7.17;3.10;;;;;;;10.37;80.24;99811.30;1727969;82;21510;-65
2023/04/21 08:57:09;;;;;;;7.40;2.87;;;;;;;10.38;80.27;99824.48;1739754;81;21224;-65
2023/04/21 09:00:15;;;;;;;8.08;3.40;;;;;;;10.37;80.21;99809.94;1734980;81;21210;-63
2023/04/21 09:03:21;;;;;;;9.70;4.72;;;;;;;10.37;80.25;99805.84;1733093;81;21598;-63
2023/04/21 09:06:27;;;;;;;12.03;3.60;;;;;;;10.39;80.22;99806.50;1726658;81;21232;-66
2023/04/21 09:09:34;;;;;;;8.10;3.60;;;;;;;10.29;80.12;99820.97;1714226;82;21853;-64
2023/04/21 09:12:40;;;;;;;6.10;2.87;;;;;;;10.28;80.25;99813.81;1700838;83;21778;-61
2023/04/21 09:15:53;;;;;;;8.33;3.35;;;;;;;10.25;80.31;99816.92;1729313;81;21209;-65
2023/04/21 09:19:00;;;;;;;7.70;3.40;;;;;;;10.29;80.39;99811.94;1757070;81;21281;-63
2023/04/21 09:22:06;;;;;;;7.17;2.80;;;;;;;10.32;80.42;99813.75;1755898;79;21248;-61
2023/04/21 09:25:13;;;;;;;7.97;2.70;;;;;;;10.36;80.45;99819.70;1715693;83;21210;-59
2023/04/21 09:28:20;;;;;;;7.55;3.10;;;;;;;10.38;80.40;99810.29;1694194;83;21861;-59
2023/04/21 09:31:27;;;;;;;9.20;2.80;;;;;;;10.43;80.43;99815.19;1744791;80;21762;-59
2023/04/21 09:34:34;;;;;;;4.80;2.52;;;;;;;10.53;80.53;99812.48;1745394;82;21197;-59
2023/04/21 09:37:40;;;;;;;6.70;2.33;;;;;;;10.60;80.45;99808.48;1746246;81;21763;-59
2023/04/21 09:40:47;;;;;;;6.35;2.50;;;;;;;10.67;80.49;99812.67;1746735;82;21892;-59
2023/04/21 09:43:54;;;;;;;5.20;2.42;;;;;;;10.74;80.49;99802.13;1746839;80;21202;-62
2023/04/21 09:47:08;;;;;;;7.85;3.83;;;;;;;10.81;80.49;99803.08;1746941;80;21795;-61
2023/04/21 09:50:16;;;;;;;5.58;3.17;;;;;;;10.93;80.53;99812.48;1730516;82;21209;-61
2023/04/21 09:53:25;;;;;;;7.97;2.90;;;;;;;11.04;80.54;99817.47;1731636;80;21249;-62
2023/04/21 09:56:32;;;;;;;7.05;2.58;;;;;;;11.14;80.55;99813.05;1745823;80;21391;-61
2023/04/21 09:59:48;;;;;;;5.95;3.08;;;;;;;11.20;80.40;99819.11;1746706;80;21209;-62
2023/04/21 10:02:58;;;;;;;9.20;4.03;;;;;;;11.17;80.37;99812.66;1718942;82;21243;-61
2023/04/21 10:06:07;;;;;;;9.45;3.17;;;;;;;11.18;80.32;99812.46;1718183;82;21739;-61
2023/04/21 10:09:13;;;;;;;4.67;2.42;;;;;;;11.15;80.27;99803.77;1742431;81;21181;-59
2023/04/21 10:12:19;;;;;;;8.28;2.80;;;;;;;11.13;80.26;99812.73;1717666;82;21237;-60
2023/04/21 10:15:39;;;;;;;11.60;4.87;;;;;;;11.08;80.28;99813.31;1698858;83;21245;-59
2023/04/21 10:18:52;;;;;;;11.30;3.33;;;;;;;11.04;80.16;99813.86;1665104;84;21233;-60
2023/04/21 10:22:00;;;;;;;6.87;3.23;;;;;;;10.99;80.21;99812.25;1740252;82;21747;-61
2023/04/21 10:25:09;;;;;;;10.78;4.40;;;;;;;11.00;80.29;99823.02;1701827;82;21232;-61
2023/04/21 10:28:19;;;;;;;38.30;15.10;;;;;;;11.07;80.36;99825.84;1729862;80;21235;-59
2023/04/21 10:31:59;;;;;;;10.03;3.65;;;;;;;11.09;80.39;99820.98;1735851;80;21240;-60
2023/04/21 10:35:07;;;;;;;12.53;3.33;;;;;;;11.19;80.46;99818.80;1714146;83;21721;-61
2023/04/21 10:38:14;;;;;;;7.40;3.80;;;;;;;11.34;80.48;99829.17;1700542;84;21511;-61
2023/04/21 10:41:42;;;;;;;11.53;3.58;;;;;;;11.47;80.49;99826.58;1728715;81;21195;-60
2023/04/21 10:45:07;;;;;;;10.03;3.72;;;;;;;11.58;80.42;99835.66;1703792;82;21220;-62
2023/04/21 10:48:16;;;;;;;14.60;4.33;;;;;;;11.70;80.43;99830.03;1707812;83;21695;-60
2023/04/21 10:51:21;;;;;;;12.53;4.70;;;;;;;11.83;80.36;99831.50;1730321;82;21730;-60
2023/04/21 10:54:35;;;;;;;10.15;3.47;;;;;;;11.88;80.23;99835.88;1684610;84;21205;-59
2023/04/21 10:57:41;;;;;;;7.22;3.20;;;;;;;11.91;80.10;99820.39;1699674;84;21301;-60
2023/04/21 11:00:47;;;;;;;10.05;3.70;;;;;;;11.90;80.01;99836.53;1717464;82;21232;-60
2023/04/21 11:03:57;;;;;;;11.03;3.58;;;;;;;11.89;79.94;99840.33;1716675;82;21197;-61
2023/04/21 11:07:23;;;;;;;7.70;3.27;;;;;;;11.88;79.84;99845.47;1688621;82;21246;-59
2023/04/21 11:10:29;;;;;;;11.70;3.12;;;;;;;11.92;79.97;99847.62;1737705;80;21216;-60
2023/04/21 11:13:35;;;;;;;8.03;3.62;;;;;;;12.00;79.91;99849.40;1734266;80;21198;-59
2023/04/21 11:16:46;;;;;;;21.02;10.00;;;;;;;12.07;80.00;99848.91;1733040;81;21258;-59
2023/04/21 11:19:58;;;;;;;16.85;4.12;;;;;;;12.19;79.97;99846.48;1736859;82;21255;-60
2023/04/21 11:23:05;;;;;;;9.95;3.85;;;;;;;12.27;79.93;99853.20;1698839;84;21225;-61
2023/04/21 11:26:10;;;;;;;9.38;3.55;;;;;;;12.28;79.69;99859.86;1733687;80;21911;-60
2023/04/21 11:29:18;;;;;;;13.10;5.53;;;;;;;12.30;79.69;99863.26;1729332;81;21259;-57
2023/04/21 11:32:24;;;;;;;10.28;3.30;;;;;;;12.34;79.71;99864.54;1742988;79;21764;-56
2023/04/21 11:35:31;;;;;;;12.13;4.67;;;;;;;12.39;79.66;99866.68;1751252;80;21201;-57
2023/04/21 11:38:47;;;;;;;10.20;3.85;;;;;;;12.47;79.75;99863.78;1736396;80;21215;-57
2023/04/21 11:41:50;;;;;;;7.42;3.22;;;;;;;12.46;79.60;99867.08;1717953;81;21276;-57
2023/04/21 11:44:55;;;;;;;11.20;3.50;;;;;;;12.36;79.35;99865.20;1763878;79;21251;-58
2023/04/21 11:48:20;;;;;;;7.50;2.60;;;;;;;12.31;79.35;99863.57;1745547;79;21825;-59
2023/04/21 11:51:26;;;;;;;13.62;3.67;;;;;;;12.24;79.26;99857.72;1750784;79;21184;-57
2023/04/21 11:54:32;;;;;;;9.23;3.50;;;;;;;12.08;79.16;99863.48;1752997;79;21698;-58
2023/04/21 11:57:38;;;;;;;8.85;3.60;;;;;;;11.99;79.29;99870.48;1726422;80;21255;-58
2023/04/21 12:00:46;;;;;;;7.87;3.40;;;;;;;11.96;79.46;99871.39;1764186;79;21208;-58
2023/04/21 12:04:02;;;;;;;10.05;4.40;;;;;;;11.92;79.46;99868.73;1715253;82;21777;-58
2023/04/21 12:07:09;;;;;;;37.25;16.50;;;;;;;11.86;79.43;99869.53;1761786;80;21181;-57
2023/04/21 12:10:26;;;;;;;14.78;3.95;;;;;;;11.74;79.33;99873.81;1748534;80;21268;-59
2023/04/21 12:13:35;;;;;;;11.25;3.67;;;;;;;11.65;79.40;99879.11;1748471;80;21237;-58
2023/04/21 12:16:44;;;;;;;11.95;3.50;;;;;;;11.64;79.63;99873.28;1756732;79;21291;-57
2023/04/21 12:19:49;;;;;;;9.53;4.00;;;;;;;11.67;79.75;99873.75;1743977;80;21203;-57
2023/04/21 12:22:57;;;;;;;41.98;22.10;;;;;;;11.71;79.71;99872.84;1740660;80;21848;-56
2023/04/21 12:26:02;;;;;;;11.90;4.50;;;;;;;11.76;79.79;99865.74;1717399;82;21212;-57
2023/04/21 12:29:08;;;;;;;12.47;4.30;;;;;;;11.91;79.87;99868.39;1713959;82;21211;-57
2023/04/21 12:32:16;;;;;;;10.32;4.20;;;;;;;11.95;79.71;99869.70;1706575;81;21852;-58
2023/04/21 12:35:21;;;;;;;12.37;4.05;;;;;;;12.03;79.80;99868.20;1711778;83;21201;-59
2023/04/21 12:38:27;;;;;;;14.45;4.15;;;;;;;11.96;79.47;99872.77;1711104;82;21200;-59
2023/04/21 12:41:33;;;;;;;12.47;3.87;;;;;;;11.89;79.56;99871.87;1711860;82;21232;-59
2023/04/21 12:44:40;;;;;;;10.20;3.65;;;;;;;11.93;79.64;99864.42;1744845;80;21272;-58
2023/04/21 12:47:46;;;;;;;14.98;4.65;;;;;;;11.91;79.65;99865.64;1742558;81;21220;-58
2023/04/21 12:50:52;;;;;;;12.73;4.60;;;;;;;11.99;79.74;99869.63;1743346;82;21259;-58
2023/04/21 12:53:57;;;;;;;14.65;6.08;;;;;;;12.07;79.73;99869.48;1744009;81;21263;-58
2023/04/21 12:57:03;;;;;;;13.35;5.03;;;;;;;12.05;79.53;99875.17;1744322;80;21208;-58
2023/04/21 13:00:11;;;;;;;10.60;4.25;;;;;;;12.08;79.57;99868.46;1729366;80;21785;-59
2023/04/21 13:03:15;;;;;;;12.13;4.22;;;;;;;12.08;79.50;99871.72;1742570;80;21769;-58
2023/04/21 13:06:23;;;;;;;12.75;4.50;;;;;;;12.12;79.64;99872.49;1742348;80;22122;-59
2023/04/21 13:09:29;;;;;;;13.32;4.75;;;;;;;12.16;79.67;99857.86;1763434;80;21192;-57
2023/04/21 13:12:36;;;;;;;12.88;4.20;;;;;;;12.14;79.55;99870.41;1773904;80;21228;-59
2023/04/21 13:15:42;;;;;;;11.18;4.20;;;;;;;12.01;79.40;99864.80;1767619;80;21177;-59
2023/04/21 13:18:48;;;;;;;14.58;5.08;;;;;;;11.92;79.49;99865.99;1718334;82;21181;-57
2023/04/21 13:21:56;;;;;;;13.10;4.70;;;;;;;11.84;79.51;99866.13;1706175;81;21790;-58
2023/04/21 13:25:03;;;;;;;9.28;4.53;;;;;;;11.77;79.47;99877.54;1735618;82;21227;-58
2023/04/21 13:28:12;;;;;;;13.98;4.55;;;;;;;11.62;79.40;99868.51;1707149;81;21226;-58
2023/04/21 13:31:19;;;;;;;11.80;5.03;;;;;;;11.54;79.54;99870.00;1718525;83;22065;-59
2023/04/21 13:34:26;;;;;;;12.20;4.10;;;;;;;11.55;79.73;99875.28;1701194;83;21185;-57
2023/04/21 13:37:32;;;;;;;12.95;4.60;;;;;;;11.61;79.85;99880.50;1728340;81;21601;-58
2023/04/21 13:40:39;;;;;;;13.10;4.50;;;;;;;11.54;79.71;99866.72;1706488;83;21188;-58
2023/04/21 13:43:47;;;;;;;13.68;4.87;;;;;;;11.43;79.75;99867.23;1730280;82;21211;-59
2023/04/21 13:46:53;;;;;;;12.23;4.08;;;;;;;11.44;79.92;99865.34;1738156;82;21800;-58
2023/04/21 13:49:58;;;;;;;7.00;3.27;;;;;;;11.51;80.03;99873.13;1725413;83;21190;-58
2023/04/21 13:53:02;;;;;;;8.98;3.30;;;;;;;11.55;79.94;99875.80;1731992;82;21262;-56
2023/04/21 13:56:10;;;;;;;13.62;4.78;;;;;;;11.49;79.83;99877.95;1731755;82;21266;-57
2023/04/21 13:59:16;;;;;;;11.53;4.55;;;;;;;11.42;79.69;99883.86;1731601;82;21250;-58
2023/04/21 14:02:24;;;;;;;12.90;4.55;;;;;;;11.41;79.83;99868.48;1730779;81;21234;-57
2023/04/21 14:05:32;;;;;;;12.53;3.90;;;;;;;11.37;79.78;99880.88;1715601;81;21213;-58
2023/04/21 14:08:38;;;;;;;12.88;4.28;;;;;;;11.27;79.80;99869.38;1709211;83;21716;-58
2023/04/21 14:11:44;;;;;;;11.80;3.87;;;;;;;11.26;79.84;99871.77;1727213;82;21214;-58
2023/04/21 14:14:51;;;;;;;14.70;4.40;;;;;;;11.21;79.85;99870.97;1730324;83;21743;-59
2023/04/21 14:17:59;;;;;;;10.18;3.72;;;;;;;11.25;80.00;99871.45;1718766;81;21812;-58
2023/04/21 14:21:06;;;;;;;14.00;4.25;;;;;;;11.45;80.23;99869.77;1693212;83;21224;-58
2023/04/21 14:24:12;;;;;;;12.10;3.90;;;;;;;11.62;80.04;99868.51;1708876;82;21222;-59
2023/04/21 14:27:17;;;;;;;11.40;3.98;;;;;;;11.68;79.84;99871.87;1728580;81;21843;-58
2023/04/21 14:30:24;;;;;;;14.68;4.47;;;;;;;11.76;79.86;99879.97;1740465;82;21186;-57
2023/04/21 14:33:31;;;;;;;10.25;4.03;;;;;;;11.83;79.77;99880.86;1752520;81;21205;-58
2023/04/21 14:36:38;;;;;;;12.98;4.00;;;;;;;11.89;79.61;99874.61;1753019;81;21230;-57
2023/04/21 14:39:43;;;;;;;13.22;4.17;;;;;;;11.93;79.60;99871.79;1746810;81;21204;-58